createdAt,value
2023-10-31T00:02:27.159Z,22.92
2023-10-31T00:04:54.866Z,19.13
2023-10-31T00:07:22.386Z,26.63
2023-10-31T00:09:49.940Z,21.88
2023-10-31T00:12:17.485Z,21.73
2023-10-31T00:14:45.046Z,18.75
2023-10-31T00:17:12.778Z,20.70
2023-10-31T00:19:40.477Z,20.67
2023-10-31T00:22:07.997Z,20.95
2023-10-31T00:24:35.588Z,24.65
2023-10-31T00:27:03.245Z,18.85
2023-10-31T00:29:30.870Z,22.98
2023-10-31T00:31:58.478Z,20.33
2023-10-31T00:34:26.219Z,20.20
2023-10-31T00:36:53.722Z,25.42
2023-10-31T00:39:23.009Z,18.00
2023-10-31T00:41:53.400Z,21.63
2023-10-31T00:44:21.066Z,20.65
2023-10-31T00:46:48.716Z,22.80
2023-10-31T00:49:16.340Z,23.98
2023-10-31T00:51:44.383Z,21.73
2023-10-31T00:54:12.352Z,26.52
2023-10-31T00:56:40.063Z,21.30
2023-10-31T00:59:07.808Z,21.05
2023-10-31T01:01:35.491Z,23.33
2023-10-31T01:04:03.231Z,23.63
2023-10-31T01:06:30.983Z,25.38
2023-10-31T01:08:59.145Z,23.00
2023-10-31T01:11:26.656Z,19.52
2023-10-31T01:13:55.004Z,21.40
2023-10-31T01:16:22.693Z,24.80
2023-10-31T01:18:50.384Z,23.73
2023-10-31T01:21:17.942Z,19.65
2023-10-31T01:23:48.087Z,25.15
2023-10-31T01:26:15.671Z,24.17
2023-10-31T01:28:43.257Z,23.92
2023-10-31T01:31:11.675Z,25.02
2023-10-31T01:33:39.387Z,19.08
2023-10-31T01:36:08.864Z,21.02
2023-10-31T01:38:36.432Z,26.70
2023-10-31T01:41:04.563Z,25.55
2023-10-31T01:43:37.054Z,26.48
2023-10-31T01:46:05.388Z,18.70
2023-10-31T01:48:34.600Z,26.23
2023-10-31T01:51:05.055Z,20.60
2023-10-31T01:53:37.443Z,25.75
2023-10-31T01:56:05.766Z,22.50
2023-10-31T01:58:36.778Z,23.17
2023-10-31T02:01:05.877Z,18.73
2023-10-31T02:03:34.648Z,20.27
2023-10-31T02:06:02.413Z,23.38
2023-10-31T02:08:30.001Z,22.52
2023-10-31T02:10:57.673Z,22.95
2023-10-31T02:13:25.466Z,22.50
2023-10-31T02:15:53.292Z,19.85
2023-10-31T02:18:20.963Z,20.15
2023-10-31T02:20:49.830Z,17.90
2023-10-31T02:23:17.949Z,24.58
2023-10-31T02:25:45.711Z,14.43
2023-10-31T02:28:13.322Z,18.95
2023-10-31T02:30:41.734Z,20.73
2023-10-31T02:33:09.404Z,20.30
2023-10-31T02:35:37.151Z,22.45
2023-10-31T02:38:04.873Z,20.00
2023-10-31T02:40:32.585Z,19.20
2023-10-31T02:43:00.375Z,18.58
2023-10-31T02:45:27.932Z,17.85
2023-10-31T02:47:56.471Z,22.00
2023-10-31T02:50:24.172Z,24.95
2023-10-31T02:52:51.906Z,16.83
2023-10-31T02:55:19.537Z,17.50
2023-10-31T02:57:47.283Z,17.42
2023-10-31T03:00:15.455Z,16.67
2023-10-31T03:02:43.253Z,17.80
2023-10-31T03:05:11.039Z,16.90
2023-10-31T03:07:38.748Z,19.00
2023-10-31T03:10:07.090Z,16.13
2023-10-31T03:12:35.470Z,14.48
2023-10-31T03:15:04.794Z,13.38
2023-10-31T03:17:32.487Z,13.55
2023-10-31T03:20:00.059Z,16.40
2023-10-31T03:22:27.687Z,14.90
2023-10-31T03:24:55.272Z,13.50
2023-10-31T03:27:22.978Z,12.98
2023-10-31T03:29:50.902Z,16.48
2023-10-31T03:32:18.508Z,13.60
2023-10-31T03:34:48.363Z,16.30
2023-10-31T03:37:15.973Z,16.08
2023-10-31T03:39:43.723Z,11.20
2023-10-31T03:42:11.364Z,12.80
2023-10-31T03:44:39.062Z,12.70
2023-10-31T03:47:06.725Z,15.45
2023-10-31T03:49:34.292Z,13.27
2023-10-31T03:52:01.862Z,11.15
2023-10-31T03:54:29.376Z,9.80
2023-10-31T03:56:56.925Z,10.85
2023-10-31T03:59:24.454Z,11.85
2023-10-31T04:01:52.381Z,11.30
2023-10-31T04:04:19.924Z,12.18
2023-10-31T04:06:47.729Z,11.30
2023-10-31T04:09:15.311Z,8.85
2023-10-31T04:11:44.369Z,11.45
2023-10-31T04:14:12.237Z,9.85
2023-10-31T04:16:47.033Z,11.23
2023-10-31T04:19:14.797Z,8.43
2023-10-31T04:21:42.446Z,9.43
2023-10-31T04:24:10.197Z,9.43
2023-10-31T04:26:37.960Z,10.98
2023-10-31T04:29:05.580Z,8.73
2023-10-31T04:31:41.532Z,11.73
2023-10-31T04:34:11.918Z,8.38
2023-10-31T04:36:39.596Z,13.05
2023-10-31T04:39:07.631Z,9.07
2023-10-31T04:41:35.318Z,17.48
2023-10-31T04:44:04.085Z,9.07
2023-10-31T04:46:31.725Z,9.85
2023-10-31T04:48:59.402Z,9.38
2023-10-31T04:51:27.030Z,8.65
2023-10-31T04:53:54.825Z,10.40
2023-10-31T04:56:22.490Z,9.25
2023-10-31T04:58:50.004Z,9.50
2023-10-31T05:01:17.615Z,8.32
2023-10-31T05:03:45.221Z,7.80
2023-10-31T05:06:13.089Z,6.90
2023-10-31T05:08:40.734Z,8.25
2023-10-31T05:11:09.236Z,11.15
2023-10-31T05:13:36.837Z,8.50
2023-10-31T05:16:04.861Z,9.63
2023-10-31T05:18:32.447Z,9.13
2023-10-31T05:20:59.990Z,6.63
2023-10-31T05:23:27.602Z,8.20
2023-10-31T05:25:56.761Z,8.38
2023-10-31T05:28:27.294Z,8.15
2023-10-31T05:30:54.861Z,10.63
2023-10-31T05:33:24.323Z,6.90
2023-10-31T05:35:51.934Z,5.15
2023-10-31T05:38:19.466Z,7.82
2023-10-31T05:40:47.230Z,8.23
2023-10-31T05:43:14.822Z,6.32
2023-10-31T05:45:44.242Z,7.85
2023-10-31T05:48:15.770Z,9.32
2023-10-31T05:50:43.814Z,7.10
2023-10-31T05:53:12.653Z,7.15
2023-10-31T05:55:41.329Z,8.30
2023-10-31T05:58:08.942Z,8.50
2023-10-31T06:00:38.749Z,11.52
2023-10-31T06:03:06.379Z,15.23
2023-10-31T06:05:33.928Z,11.63
2023-10-31T06:08:02.109Z,10.50
2023-10-31T06:10:32.376Z,10.20
2023-10-31T06:12:59.909Z,14.45
2023-10-31T06:15:27.391Z,9.15
2023-10-31T06:17:54.948Z,13.05
2023-10-31T06:20:23.372Z,15.80
2023-10-31T06:22:51.044Z,14.20
2023-10-31T06:25:18.629Z,13.40
2023-10-31T06:27:46.206Z,18.95
2023-10-31T06:30:23.555Z,13.02
2023-10-31T06:32:55.349Z,11.25
2023-10-31T06:35:25.751Z,19.38
2023-10-31T06:37:58.109Z,16.67
2023-10-31T06:40:26.768Z,16.48
2023-10-31T06:42:54.287Z,18.02
2023-10-31T06:45:22.218Z,19.75
2023-10-31T06:47:49.879Z,14.32
2023-10-31T06:50:20.454Z,18.67
2023-10-31T06:52:48.536Z,16.20
2023-10-31T06:55:16.717Z,14.63
2023-10-31T06:57:44.903Z,16.27
2023-10-31T07:00:13.525Z,16.45
2023-10-31T07:02:41.374Z,15.15
2023-10-31T07:05:09.377Z,18.80
2023-10-31T07:07:37.546Z,14.40
2023-10-31T07:10:05.574Z,15.45
2023-10-31T07:12:33.193Z,16.33
2023-10-31T07:15:00.873Z,11.85
2023-10-31T07:17:28.561Z,14.93
2023-10-31T07:19:56.883Z,17.65
2023-10-31T07:22:25.847Z,21.77
2023-10-31T07:24:53.464Z,19.70
2023-10-31T07:27:21.318Z,25.40
2023-10-31T07:29:50.069Z,18.45
2023-10-31T07:32:17.721Z,19.98
2023-10-31T07:34:45.732Z,18.38
2023-10-31T07:37:13.449Z,22.55
2023-10-31T07:39:41.069Z,18.85
2023-10-31T07:42:08.947Z,16.55
2023-10-31T07:44:37.002Z,21.40
2023-10-31T07:47:04.797Z,15.20
2023-10-31T07:49:32.389Z,17.13
2023-10-31T07:52:00.177Z,17.90
2023-10-31T07:54:28.001Z,18.67
2023-10-31T07:56:55.615Z,21.75
2023-10-31T07:59:23.213Z,23.85
2023-10-31T08:01:53.567Z,25.42
2023-10-31T08:04:21.357Z,28.00
2023-10-31T08:06:48.905Z,34.20
2023-10-31T08:09:17.386Z,31.77
2023-10-31T08:11:44.873Z,28.08
2023-10-31T08:14:12.604Z,18.80
2023-10-31T08:16:40.218Z,17.88
2023-10-31T08:19:07.850Z,25.75
2023-10-31T08:21:36.763Z,16.33
2023-10-31T08:24:04.827Z,24.88
2023-10-31T08:26:33.289Z,20.27
2023-10-31T08:29:00.928Z,21.45
2023-10-31T08:31:28.565Z,21.88
2023-10-31T08:33:56.143Z,17.10
2023-10-31T08:36:23.836Z,18.90
2023-10-31T08:38:51.493Z,17.38
2023-10-31T08:41:21.274Z,20.85
2023-10-31T08:43:48.950Z,21.05
2023-10-31T08:46:16.804Z,14.98
2023-10-31T08:48:44.874Z,17.77
2023-10-31T08:51:12.455Z,20.45
2023-10-31T08:53:40.000Z,15.68
2023-10-31T08:56:08.527Z,14.00
2023-10-31T08:58:36.154Z,24.67
2023-10-31T09:01:03.891Z,18.27
2023-10-31T09:03:33.037Z,17.17
2023-10-31T09:06:00.635Z,15.85
2023-10-31T09:08:28.276Z,18.90
2023-10-31T09:10:55.908Z,17.95
2023-10-31T09:13:23.562Z,23.17
2023-10-31T09:15:51.310Z,20.63
2023-10-31T09:18:18.991Z,20.30
2023-10-31T09:20:46.619Z,18.45
2023-10-31T09:23:14.259Z,18.65
2023-10-31T09:25:41.819Z,22.95
2023-10-31T09:28:09.415Z,18.52
2023-10-31T09:30:37.120Z,20.90
2023-10-31T09:33:04.784Z,19.27
2023-10-31T09:35:32.571Z,17.42
2023-10-31T09:38:00.213Z,17.38
2023-10-31T09:40:27.858Z,16.42
2023-10-31T09:42:55.436Z,22.08
2023-10-31T09:45:23.126Z,17.85
2023-10-31T09:47:50.788Z,17.30
2023-10-31T09:50:18.779Z,17.23
2023-10-31T09:52:47.607Z,19.80
2023-10-31T09:55:15.587Z,16.58
2023-10-31T09:57:43.206Z,20.20
2023-10-31T10:00:11.512Z,18.98
2023-10-31T10:02:39.407Z,19.02
2023-10-31T10:05:07.491Z,18.55
2023-10-31T10:07:36.893Z,19.73
2023-10-31T10:10:04.763Z,16.58
2023-10-31T10:12:33.075Z,25.67
2023-10-31T10:15:00.694Z,19.48
2023-10-31T10:17:28.402Z,27.08
2023-10-31T10:20:12.544Z,18.83
2023-10-31T10:22:44.309Z,19.48
2023-10-31T10:25:16.881Z,30.48
2023-10-31T10:27:48.552Z,30.55
2023-10-31T10:30:17.257Z,29.10
2023-10-31T10:32:45.535Z,28.73
2023-10-31T10:35:13.198Z,21.77
2023-10-31T10:37:41.461Z,26.23
2023-10-31T10:40:11.624Z,18.05
2023-10-31T10:42:49.491Z,20.27
2023-10-31T10:45:19.283Z,25.23
2023-10-31T10:47:50.443Z,18.88
2023-10-31T10:50:22.203Z,17.98
2023-10-31T10:53:30.479Z,18.60
2023-10-31T10:56:14.887Z,19.48
2023-10-31T10:59:23.979Z,16.20
2023-10-31T11:01:53.009Z,18.50
2023-10-31T11:04:20.929Z,19.83
2023-10-31T11:06:49.494Z,15.45
2023-10-31T11:09:18.261Z,21.55
2023-10-31T11:11:50.199Z,21.15
2023-10-31T11:14:19.063Z,25.75
2023-10-31T11:16:54.314Z,20.02
2023-10-31T11:19:25.200Z,21.75
2023-10-31T11:21:59.253Z,18.17
2023-10-31T11:24:33.421Z,22.00
2023-10-31T11:27:06.437Z,18.60
2023-10-31T11:29:34.414Z,23.63
2023-10-31T11:32:02.351Z,21.42
2023-10-31T11:34:33.106Z,24.95
2023-10-31T11:37:20.093Z,24.98
2023-10-31T11:40:21.983Z,26.98
2023-10-31T11:42:57.415Z,22.08
2023-10-31T11:45:29.714Z,21.38
2023-10-31T11:47:58.108Z,17.02
2023-10-31T11:50:26.356Z,19.90
2023-10-31T11:53:14.389Z,18.70
2023-10-31T11:55:47.800Z,22.17
2023-10-31T11:58:31.360Z,18.90
2023-10-31T12:01:04.884Z,21.10
2023-10-31T12:03:40.719Z,22.17
2023-10-31T12:06:09.900Z,20.08
2023-10-31T12:08:39.839Z,18.80
2023-10-31T12:11:18.865Z,22.20
2023-10-31T12:14:01.718Z,24.38
2023-10-31T12:16:31.652Z,15.48
2023-10-31T12:19:01.286Z,14.27
2023-10-31T12:21:36.819Z,21.67
2023-10-31T12:24:09.434Z,13.52
2023-10-31T12:26:37.746Z,13.85
2023-10-31T12:29:13.134Z,13.90
2023-10-31T12:31:48.699Z,15.63
2023-10-31T12:34:17.932Z,15.00
2023-10-31T12:36:48.160Z,13.43
2023-10-31T12:39:17.845Z,16.27
2023-10-31T12:41:45.981Z,12.40
2023-10-31T12:44:18.531Z,12.52
2023-10-31T12:46:46.742Z,16.13
2023-10-31T12:49:19.296Z,15.80
2023-10-31T12:52:01.066Z,17.83
2023-10-31T12:54:30.458Z,13.93
2023-10-31T12:57:16.957Z,12.25
2023-10-31T12:59:44.688Z,32.17
2023-10-31T13:02:18.547Z,16.30
2023-10-31T13:04:46.347Z,13.93
2023-10-31T13:07:13.961Z,13.98
2023-10-31T13:09:43.428Z,11.23
2023-10-31T13:12:14.142Z,12.57
2023-10-31T13:14:42.323Z,10.15
2023-10-31T13:17:09.952Z,12.02
2023-10-31T13:19:37.554Z,14.40
2023-10-31T13:22:05.104Z,14.88
2023-10-31T13:24:32.999Z,15.10
2023-10-31T13:27:01.787Z,12.45
2023-10-31T13:29:29.544Z,12.20
2023-10-31T13:31:57.583Z,9.63
2023-10-31T13:34:25.752Z,8.10
2023-10-31T13:36:55.240Z,7.28
2023-10-31T13:39:23.435Z,8.20
2023-10-31T13:41:51.990Z,11.02
2023-10-31T13:44:19.672Z,7.70
2023-10-31T13:46:47.214Z,9.38
2023-10-31T13:49:15.516Z,7.93
2023-10-31T13:51:43.053Z,8.40
2023-10-31T13:54:10.749Z,9.07
2023-10-31T13:56:38.372Z,14.65
2023-10-31T13:59:06.101Z,10.93
2023-10-31T14:01:33.823Z,9.77
2023-10-31T14:04:01.976Z,9.23
2023-10-31T14:06:33.382Z,11.00
2023-10-31T14:09:06.139Z,5.97
2023-10-31T14:11:35.056Z,7.63
2023-10-31T14:14:11.537Z,7.18
2023-10-31T14:16:42.457Z,8.73
2023-10-31T14:19:12.307Z,10.07
2023-10-31T14:21:40.237Z,13.93
2023-10-31T14:24:12.377Z,7.68
2023-10-31T14:26:44.077Z,7.35
2023-10-31T14:29:12.544Z,10.43
2023-10-31T14:31:42.182Z,6.43
2023-10-31T14:34:10.430Z,5.97
2023-10-31T14:36:38.069Z,4.70
2023-10-31T14:39:06.481Z,6.43
2023-10-31T14:41:35.167Z,5.43
2023-10-31T14:44:03.321Z,4.07
2023-10-31T14:46:31.447Z,6.82
2023-10-31T14:48:59.626Z,2.80
2023-10-31T14:51:27.177Z,6.28
2023-10-31T14:53:54.738Z,4.95
2023-10-31T14:56:23.537Z,4.88
2023-10-31T14:58:51.154Z,5.00
2023-10-31T15:01:18.837Z,5.00
2023-10-31T15:03:46.553Z,7.82
2023-10-31T15:06:16.235Z,5.00
2023-10-31T15:08:43.978Z,4.75
2023-10-31T15:11:11.753Z,5.20
2023-10-31T15:13:39.388Z,6.43
2023-10-31T15:16:07.462Z,7.13
2023-10-31T15:18:35.147Z,5.05
2023-10-31T15:21:02.839Z,5.95
2023-10-31T15:23:31.744Z,4.43
2023-10-31T15:25:59.642Z,5.85
2023-10-31T15:28:27.229Z,3.95
2023-10-31T15:30:54.846Z,2.97
2023-10-31T15:33:22.382Z,3.50
2023-10-31T15:35:51.749Z,5.72
2023-10-31T15:38:19.647Z,6.50
2023-10-31T15:40:47.460Z,4.22
2023-10-31T15:43:15.128Z,4.20
2023-10-31T15:45:42.829Z,3.88
2023-10-31T15:48:10.473Z,7.20
2023-10-31T15:50:38.142Z,5.30
2023-10-31T15:53:05.749Z,3.30
2023-10-31T15:55:33.307Z,5.63
2023-10-31T15:58:00.920Z,5.60
2023-10-31T16:00:28.521Z,3.95
2023-10-31T16:02:56.265Z,5.95
2023-10-31T16:05:24.527Z,5.85
2023-10-31T16:07:52.114Z,8.27
2023-10-31T16:10:19.722Z,7.40
2023-10-31T16:12:47.396Z,4.38
2023-10-31T16:15:15.014Z,8.70
2023-10-31T16:17:42.721Z,5.97
2023-10-31T16:20:10.566Z,6.78
2023-10-31T16:22:38.210Z,5.10
2023-10-31T16:25:06.265Z,5.05
2023-10-31T16:27:34.215Z,7.03
2023-10-31T16:30:01.786Z,4.75
2023-10-31T16:32:29.572Z,6.70
2023-10-31T16:34:58.720Z,9.02
2023-10-31T16:37:26.328Z,6.15
2023-10-31T16:39:54.103Z,4.90
2023-10-31T16:42:21.893Z,8.80
2023-10-31T16:44:49.427Z,6.28
2023-10-31T16:47:17.048Z,5.25
2023-10-31T16:49:44.742Z,5.97
2023-10-31T16:52:12.537Z,9.63
2023-10-31T16:54:40.491Z,6.05
2023-10-31T16:57:08.361Z,8.07
2023-10-31T16:59:35.931Z,7.82
2023-10-31T17:02:04.176Z,5.30
2023-10-31T17:04:35.926Z,7.32
2023-10-31T17:07:04.056Z,6.70
2023-10-31T17:09:31.656Z,4.90
2023-10-31T17:11:59.209Z,6.30
2023-10-31T17:14:26.871Z,6.35
2023-10-31T17:16:54.577Z,8.50
2023-10-31T17:19:22.366Z,8.98
2023-10-31T17:21:52.353Z,9.20
2023-10-31T17:24:19.955Z,8.25
2023-10-31T17:26:47.858Z,6.72
2023-10-31T17:29:15.580Z,10.20
2023-10-31T17:31:43.118Z,8.27
2023-10-31T17:34:10.776Z,11.95
2023-10-31T17:36:38.366Z,7.22
2023-10-31T17:39:05.947Z,9.20
2023-10-31T17:41:33.515Z,8.27
2023-10-31T17:44:01.192Z,11.85
2023-10-31T17:46:28.810Z,9.07
2023-10-31T17:48:56.461Z,10.73
2023-10-31T17:51:24.198Z,10.85
2023-10-31T17:53:52.171Z,11.90
2023-10-31T17:56:19.988Z,17.48
2023-10-31T17:58:47.554Z,19.65
2023-10-31T18:01:15.347Z,15.13
2023-10-31T18:03:43.106Z,20.20
2023-10-31T18:06:10.693Z,17.75
2023-10-31T18:08:38.426Z,17.65
2023-10-31T18:11:07.041Z,20.02
2023-10-31T18:13:34.685Z,16.27
2023-10-31T18:16:02.546Z,19.52
2023-10-31T18:18:30.156Z,15.85
2023-10-31T18:21:02.146Z,12.00
2023-10-31T18:23:30.331Z,13.40
2023-10-31T18:25:58.077Z,19.50
2023-10-31T18:28:26.407Z,14.10
2023-10-31T18:30:54.192Z,15.27
2023-10-31T18:33:21.803Z,12.40
2023-10-31T18:35:49.445Z,18.23
2023-10-31T18:38:17.119Z,20.10
2023-10-31T18:40:44.689Z,12.07
2023-10-31T18:43:12.280Z,18.70
2023-10-31T18:45:39.943Z,15.70
2023-10-31T18:48:07.590Z,18.02
2023-10-31T18:50:35.350Z,19.95
2023-10-31T18:53:05.390Z,30.02
2023-10-31T18:55:33.092Z,38.70
2023-10-31T18:58:00.644Z,33.88
2023-10-31T19:00:28.225Z,26.10
2023-10-31T19:02:56.263Z,27.08
2023-10-31T19:05:24.699Z,45.78
2023-10-31T19:07:52.364Z,49.03
2023-10-31T19:10:19.980Z,46.10
2023-10-31T19:12:47.483Z,34.95
2023-10-31T19:15:15.177Z,24.90
2023-10-31T19:17:45.274Z,27.40
2023-10-31T19:20:13.531Z,28.23
2023-10-31T19:22:41.157Z,36.75
2023-10-31T19:25:08.975Z,34.35
2023-10-31T19:27:36.536Z,36.25
2023-10-31T19:30:04.814Z,45.45
2023-10-31T19:32:33.245Z,38.55
2023-10-31T19:35:00.964Z,40.40
2023-10-31T19:37:28.560Z,39.20
2023-10-31T19:39:56.063Z,43.83
2023-10-31T19:42:23.643Z,41.25
2023-10-31T19:44:51.276Z,38.63
2023-10-31T19:47:19.769Z,34.55
2023-10-31T19:49:47.346Z,44.25
2023-10-31T19:52:15.066Z,38.55
2023-10-31T19:54:42.672Z,48.42
2023-10-31T19:57:10.281Z,44.42
2023-10-31T19:59:40.438Z,49.58
2023-10-31T20:02:08.351Z,64.88
2023-10-31T20:04:36.343Z,61.67
2023-10-31T20:07:05.607Z,62.92
2023-10-31T20:09:33.123Z,59.25
2023-10-31T20:12:00.758Z,51.85
2023-10-31T20:14:28.348Z,48.63
2023-10-31T20:16:56.072Z,55.45
2023-10-31T20:19:25.700Z,47.58
2023-10-31T20:21:53.277Z,50.97
2023-10-31T20:24:21.004Z,53.42
2023-10-31T20:26:52.026Z,48.45
2023-10-31T20:29:19.671Z,47.22
2023-10-31T20:31:47.355Z,49.38
2023-10-31T20:34:15.077Z,42.47
2023-10-31T20:36:44.253Z,51.25
2023-10-31T20:39:14.730Z,41.95
2023-10-31T20:41:42.456Z,48.22
2023-10-31T20:44:10.183Z,46.08
2023-10-31T20:46:38.004Z,48.20
2023-10-31T20:49:07.468Z,44.83
2023-10-31T20:51:35.227Z,41.92
2023-10-31T20:54:02.917Z,47.55
2023-10-31T20:56:30.677Z,43.25
2023-10-31T20:58:59.734Z,39.03
2023-10-31T21:01:27.775Z,37.38
2023-10-31T21:03:55.482Z,41.80
2023-10-31T21:06:25.984Z,40.92
2023-10-31T21:08:53.601Z,42.33
2023-10-31T21:11:23.215Z,41.63
2023-10-31T21:13:51.236Z,39.88
2023-10-31T21:16:18.969Z,34.03
2023-10-31T21:18:46.654Z,36.53
2023-10-31T21:21:14.289Z,45.75
2023-10-31T21:23:41.878Z,38.50
2023-10-31T21:26:09.488Z,35.83
2023-10-31T21:28:37.044Z,37.28
2023-10-31T21:31:05.251Z,39.47
2023-10-31T21:33:32.849Z,40.78
2023-10-31T21:36:00.409Z,38.92
2023-10-31T21:38:28.075Z,38.35
2023-10-31T21:40:55.602Z,35.08
2023-10-31T21:43:24.246Z,37.55
2023-10-31T21:45:51.834Z,43.25
2023-10-31T21:48:19.482Z,33.50
2023-10-31T21:50:47.066Z,38.28
2023-10-31T21:53:14.905Z,37.03
2023-10-31T21:55:42.498Z,38.38
2023-10-31T21:58:10.439Z,43.42
2023-10-31T22:00:39.939Z,41.60
2023-10-31T22:03:07.862Z,39.30
2023-10-31T22:05:35.590Z,40.15
2023-10-31T22:08:03.542Z,41.08
2023-10-31T22:10:31.132Z,34.22
2023-10-31T22:12:58.751Z,35.67
2023-10-31T22:15:26.361Z,41.50
2023-10-31T22:17:53.976Z,38.10
2023-10-31T22:20:21.822Z,42.28
2023-10-31T22:22:49.532Z,39.13
2023-10-31T22:25:17.091Z,35.35
2023-10-31T22:27:44.960Z,43.78
2023-10-31T22:30:13.134Z,56.33
2023-10-31T22:32:41.052Z,53.05
2023-10-31T22:35:08.936Z,44.20
2023-10-31T22:37:36.706Z,92.72
2023-10-31T22:40:05.458Z,45.88
2023-10-31T22:42:34.201Z,53.85
2023-10-31T22:45:01.755Z,43.15
2023-10-31T22:47:29.801Z,61.30
2023-10-31T22:49:58.378Z,55.13
2023-10-31T22:52:25.917Z,37.03
2023-10-31T22:54:53.689Z,64.63
2023-10-31T22:57:21.240Z,37.88
2023-10-31T22:59:48.827Z,35.92
2023-10-31T23:02:17.412Z,33.33
2023-10-31T23:04:45.000Z,36.95
2023-10-31T23:07:12.502Z,33.85
2023-10-31T23:09:41.715Z,35.70
2023-10-31T23:12:09.513Z,33.60
2023-10-31T23:14:37.099Z,38.85
2023-10-31T23:17:04.978Z,39.63
2023-10-31T23:19:32.587Z,35.25
2023-10-31T23:22:00.192Z,34.80
2023-10-31T23:24:28.293Z,28.25
2023-10-31T23:26:56.036Z,25.05
2023-10-31T23:29:24.778Z,29.42
2023-10-31T23:31:52.458Z,27.60
2023-10-31T23:34:20.149Z,29.30
2023-10-31T23:36:47.706Z,25.90
2023-10-31T23:39:15.452Z,27.55
2023-10-31T23:41:43.246Z,33.17
2023-10-31T23:44:11.028Z,29.60
2023-10-31T23:46:38.673Z,32.80
2023-10-31T23:49:06.310Z,28.92
2023-10-31T23:51:33.952Z,31.02
2023-10-31T23:54:02.219Z,26.73
2023-10-31T23:56:29.732Z,26.05
2023-10-31T23:58:57.244Z,32.47
